Arrow Post — CG2882 — position and weather

sailwx.info

Track history (hours):
 
Tides and Currents Weather Stations Pressure Air Temp Water Temp Dewpoint Dewpoint Depression Visibility Wind Speed Wind Dir Waves Ship Positions

Arrow Post

Last reported at 2015-Feb-14 03:31 UTC. Time now 2015-Mar-01 06:59 UTC.
Position N 50°36' W 127°05'.
Warning: this ship's position is 15 days out of date.

Length 29 m; draft 3.5 m.

Type: SAR. MMSI: 316001090.

Date/timePositionNaut miles runAvg speedWind from/ knotsBaromVisibWave heightAir tempDewpointWater temp
2015-Feb-14 03:31N 50°36' W 127°05'0 0.0
2015-Feb-14 02:17N 50°36' W 127°05'0 0.0
2015-Feb-14 01:25N 50°36' W 127°05'0 0.0
2015-Feb-13 22:32N 50°36' W 127°05'4 1.7
2015-Feb-13 20:25N 50°35' W 126°59'8 8.9
2015-Feb-13 19:31N 50°33' W 126°47'14 0.7
2015-Feb-12 22:27N 50°40' W 126°28'9 4.9
2015-Feb-12 20:32N 50°40' W 126°42'9 8.4
2015-Feb-12 19:27N 50°41' W 126°57'8 8.3
2015-Feb-12 18:26N 50°42' W 127°10'8 8.6
2015-Feb-12 17:33N 50°45' W 127°21'  
2015-Feb-06 20:33N 54°05' W 130°20'8 8.5
2015-Feb-06 19:33N 54°14' W 130°21'5 5.4
2015-Feb-06 18:33N 54°19' W 130°20'2 2.2
2015-Feb-06 17:33N 54°20' W 130°17'0 0.0
2015-Feb-06 16:33N 54°20' W 130°17'0 0.0
2015-Feb-06 15:33N 54°20' W 130°17'0 0.0
2015-Feb-06 14:30N 54°20' W 130°17'0 0.0
2015-Feb-06 13:33N 54°20' W 130°17'0 0.0
2015-Feb-06 12:33N 54°20' W 130°17'0 0.0
2015-Feb-06 11:33N 54°20' W 130°17'0 0.0
2015-Feb-06 10:33N 54°20' W 130°17'0 0.0
2015-Feb-06 09:33N 54°20' W 130°17'0 0.0
2015-Feb-06 08:33N 54°20' W 130°17'0 0.0
2015-Feb-06 07:33N 54°20' W 130°17'0 0.0
2015-Feb-06 06:33N 54°20' W 130°17'0 0.0
2015-Feb-06 05:33N 54°20' W 130°17'0 0.0
2015-Feb-06 04:33N 54°20' W 130°17'0 0.0
2015-Feb-06 03:33N 54°20' W 130°17'0 0.0
2015-Feb-06 02:33N 54°20' W 130°17'0 0.0
2015-Feb-06 01:33N 54°20' W 130°17'0 0.0
2015-Feb-06 00:33N 54°20' W 130°17'0 0.0
2015-Feb-05 23:33N 54°20' W 130°17'0 0.0
2015-Feb-05 22:33N 54°20' W 130°17'0 0.0
2015-Feb-05 21:33N 54°20' W 130°17'0 0.0
2015-Feb-05 20:33N 54°20' W 130°17'0 0.0
2015-Feb-05 19:33N 54°20' W 130°17'0 0.0
2015-Feb-05 18:33N 54°20' W 130°17'0 0.0
2015-Feb-05 17:33N 54°20' W 130°17'0 0.0
2015-Feb-05 16:33N 54°20' W 130°17'0 0.0
2015-Feb-05 15:33N 54°20' W 130°17'0 0.0
2015-Feb-05 14:33N 54°20' W 130°17'0 0.0
2015-Feb-05 13:33N 54°20' W 130°17'0 0.0
2015-Feb-05 12:33N 54°20' W 130°17'0 0.0
2015-Feb-05 11:33N 54°20' W 130°17'0 0.0
2015-Feb-05 10:33N 54°20' W 130°17'0 0.0
2015-Feb-05 09:33N 54°20' W 130°17'0 0.0
2015-Feb-05 08:33N 54°20' W 130°17'0 0.0
2015-Feb-05 07:33N 54°20' W 130°17'0 0.0
2015-Feb-05 06:33N 54°20' W 130°17'0 0.0
2015-Feb-05 05:33N 54°20' W 130°17'0 0.0
2015-Feb-05 04:33N 54°20' W 130°17'0 0.0
2015-Feb-05 03:33N 54°20' W 130°17'0 0.0
2015-Feb-05 02:33N 54°20' W 130°17'0 0.0
2015-Feb-05 01:33N 54°20' W 130°17'0 0.0
2015-Feb-05 00:33N 54°20' W 130°17'0 0.0
2015-Feb-04 23:33N 54°20' W 130°17'0 0.0
2015-Feb-04 22:30N 54°20' W 130°17'0 0.0
2015-Feb-04 21:30N 54°20' W 130°17'0 0.0
2015-Feb-04 20:30N 54°20' W 130°17'0 0.0
2015-Feb-04 19:33N 54°20' W 130°17'0 0.0
2015-Feb-04 18:33N 54°20' W 130°17'0 0.0
2015-Feb-04 17:30N 54°20' W 130°17'0 0.0
2015-Feb-04 16:33N 54°20' W 130°17'0 0.0
2015-Feb-04 15:33N 54°20' W 130°17'0 0.0
2015-Feb-04 14:33N 54°20' W 130°17'0 0.0
2015-Feb-04 13:33N 54°20' W 130°17'0 0.0
2015-Feb-04 12:33N 54°20' W 130°17'0 0.0
2015-Feb-04 11:33N 54°20' W 130°17'0 0.0
2015-Feb-04 10:33N 54°20' W 130°17'0 0.0
2015-Feb-04 09:33N 54°20' W 130°17'0 0.0
2015-Feb-04 08:30N 54°20' W 130°17'0 0.0
2015-Feb-04 07:30N 54°20' W 130°17'0 0.0
2015-Feb-04 06:30N 54°20' W 130°17'0 0.0
2015-Feb-04 05:33N 54°20' W 130°17'0 0.0
2015-Feb-04 04:30N 54°20' W 130°17'  
Track history (hours):
 
Tides and Currents Weather Stations Pressure Air Temp Water Temp Dewpoint Dewpoint Depression Visibility Wind Speed Wind Dir Waves Ship Positions

Arrow Post

Last reported at 2015-Feb-14 03:31 UTC. Time now 2015-Mar-01 06:59 UTC.
Position N 50°36' W 127°05'.
Warning: this ship's position is 15 days out of date.

Length 29 m; draft 3.5 m.

Type: SAR. MMSI: 316001090.

Date/timePositionNaut miles runAvg speedWind from/ knotsBaromVisibWave heightAir tempDewpointWater temp
2015-Feb-14 03:31N 50°36' W 127°05'0 0.0
2015-Feb-14 02:17N 50°36' W 127°05'0 0.0
2015-Feb-14 01:25N 50°36' W 127°05'0 0.0
2015-Feb-13 22:32N 50°36' W 127°05'4 1.7
2015-Feb-13 20:25N 50°35' W 126°59'8 8.9
2015-Feb-13 19:31N 50°33' W 126°47'14 0.7
2015-Feb-12 22:27N 50°40' W 126°28'9 4.9
2015-Feb-12 20:32N 50°40' W 126°42'9 8.4
2015-Feb-12 19:27N 50°41' W 126°57'8 8.3
2015-Feb-12 18:26N 50°42' W 127°10'8 8.6
2015-Feb-12 17:33N 50°45' W 127°21'  
2015-Feb-06 20:33N 54°05' W 130°20'8 8.5
2015-Feb-06 19:33N 54°14' W 130°21'5 5.4
2015-Feb-06 18:33N 54°19' W 130°20'2 2.2
2015-Feb-06 17:33N 54°20' W 130°17'0 0.0
2015-Feb-06 16:33N 54°20' W 130°17'0 0.0
2015-Feb-06 15:33N 54°20' W 130°17'0 0.0
2015-Feb-06 14:30N 54°20' W 130°17'0 0.0
2015-Feb-06 13:33N 54°20' W 130°17'0 0.0
2015-Feb-06 12:33N 54°20' W 130°17'0 0.0
2015-Feb-06 11:33N 54°20' W 130°17'0 0.0
2015-Feb-06 10:33N 54°20' W 130°17'0 0.0
2015-Feb-06 09:33N 54°20' W 130°17'0 0.0
2015-Feb-06 08:33N 54°20' W 130°17'0 0.0
2015-Feb-06 07:33N 54°20' W 130°17'0 0.0
2015-Feb-06 06:33N 54°20' W 130°17'0 0.0
2015-Feb-06 05:33N 54°20' W 130°17'0 0.0
2015-Feb-06 04:33N 54°20' W 130°17'0 0.0
2015-Feb-06 03:33N 54°20' W 130°17'0 0.0
2015-Feb-06 02:33N 54°20' W 130°17'0 0.0
2015-Feb-06 01:33N 54°20' W 130°17'0 0.0
2015-Feb-06 00:33N 54°20' W 130°17'0 0.0
2015-Feb-05 23:33N 54°20' W 130°17'0 0.0
2015-Feb-05 22:33N 54°20' W 130°17'0 0.0
2015-Feb-05 21:33N 54°20' W 130°17'0 0.0
2015-Feb-05 20:33N 54°20' W 130°17'0 0.0
2015-Feb-05 19:33N 54°20' W 130°17'0 0.0
2015-Feb-05 18:33N 54°20' W 130°17'0 0.0
2015-Feb-05 17:33N 54°20' W 130°17'0 0.0
2015-Feb-05 16:33N 54°20' W 130°17'0 0.0
2015-Feb-05 15:33N 54°20' W 130°17'0 0.0
2015-Feb-05 14:33N 54°20' W 130°17'0 0.0
2015-Feb-05 13:33N 54°20' W 130°17'0 0.0
2015-Feb-05 12:33N 54°20' W 130°17'0 0.0
2015-Feb-05 11:33N 54°20' W 130°17'0 0.0
2015-Feb-05 10:33N 54°20' W 130°17'0 0.0
2015-Feb-05 09:33N 54°20' W 130°17'0 0.0
2015-Feb-05 08:33N 54°20' W 130°17'0 0.0
2015-Feb-05 07:33N 54°20' W 130°17'0 0.0
2015-Feb-05 06:33N 54°20' W 130°17'0 0.0
2015-Feb-05 05:33N 54°20' W 130°17'0 0.0
2015-Feb-05 04:33N 54°20' W 130°17'0 0.0
2015-Feb-05 03:33N 54°20' W 130°17'0 0.0
2015-Feb-05 02:33N 54°20' W 130°17'0 0.0
2015-Feb-05 01:33N 54°20' W 130°17'0 0.0
2015-Feb-05 00:33N 54°20' W 130°17'0 0.0
2015-Feb-04 23:33N 54°20' W 130°17'0 0.0
2015-Feb-04 22:30N 54°20' W 130°17'0 0.0
2015-Feb-04 21:30N 54°20' W 130°17'0 0.0
2015-Feb-04 20:30N 54°20' W 130°17'0 0.0
2015-Feb-04 19:33N 54°20' W 130°17'0 0.0
2015-Feb-04 18:33N 54°20' W 130°17'0 0.0
2015-Feb-04 17:30N 54°20' W 130°17'0 0.0
2015-Feb-04 16:33N 54°20' W 130°17'0 0.0
2015-Feb-04 15:33N 54°20' W 130°17'0 0.0
2015-Feb-04 14:33N 54°20' W 130°17'0 0.0
2015-Feb-04 13:33N 54°20' W 130°17'0 0.0
2015-Feb-04 12:33N 54°20' W 130°17'0 0.0
2015-Feb-04 11:33N 54°20' W 130°17'0 0.0
2015-Feb-04 10:33N 54°20' W 130°17'0 0.0
2015-Feb-04 09:33N 54°20' W 130°17'0 0.0
2015-Feb-04 08:30N 54°20' W 130°17'0 0.0
2015-Feb-04 07:30N 54°20' W 130°17'0 0.0
2015-Feb-04 06:30N 54°20' W 130°17'0 0.0
2015-Feb-04 05:33N 54°20' W 130°17'0 0.0
2015-Feb-04 04:30N 54°20' W 130°17'  

Dump ship's entire track history